sensor_id;sensor_type;location;lat;lon;timestamp;P1;durP1;ratioP1;P2;durP2;ratioP2
8544;SDS011;4310;51.054;6.994;2022-11-20T00:00:12;17.80;;;15.90;;
8544;SDS011;4310;51.054;6.994;2022-11-20T00:01:16;18.37;;;16.48;;
8544;SDS011;4310;51.054;6.994;2022-11-20T00:02:20;17.07;;;15.28;;
8544;SDS011;4310;51.054;6.994;2022-11-20T00:03:24;18.35;;;16.12;;
8544;SDS011;4310;51.054;6.994;2022-11-20T00:04:28;18.10;;;15.90;;
8544;SDS011;4310;51.054;6.994;2022-11-20T00:05:32;17.00;;;15.20;;
8544;SDS011;4310;51.054;6.994;2022-11-20T00:06:36;17.73;;;15.90;;
8544;SDS011;4310;51.054;6.994;2022-11-20T00:07:39;17.52;;;15.72;;
8544;SDS011;4310;51.054;6.994;2022-11-20T00:08:44;17.53;;;15.70;;
8544;SDS011;4310;51.054;6.994;2022-11-20T00:11:02;17.15;;;15.35;;
8544;SDS011;4310;51.054;6.994;2022-11-20T00:12:06;17.20;;;15.38;;
8544;SDS011;4310;51.054;6.994;2022-11-20T00:13:09;17.27;;;15.58;;
8544;SDS011;4310;51.054;6.994;2022-11-20T00:14:13;17.70;;;15.90;;
8544;SDS011;4310;51.054;6.994;2022-11-20T00:15:17;17.30;;;15.50;;
8544;SDS011;4310;51.054;6.994;2022-11-20T00:16:21;18.20;;;16.30;;
8544;SDS011;4310;51.054;6.994;2022-11-20T00:17:25;17.57;;;15.70;;
8544;SDS011;4310;51.054;6.994;2022-11-20T00:18:29;16.60;;;14.83;;
8544;SDS011;4310;51.054;6.994;2022-11-20T00:19:33;17.75;;;15.63;;
8544;SDS011;4310;51.054;6.994;2022-11-20T00:20:36;16.82;;;15.13;;
8544;SDS011;4310;51.054;6.994;2022-11-20T00:21:40;17.62;;;15.75;;
8544;SDS011;4310;51.054;6.994;2022-11-20T00:22:44;17.65;;;15.85;;
8544;SDS011;4310;51.054;6.994;2022-11-20T00:23:47;17.62;;;15.75;;
8544;SDS011;4310;51.054;6.994;2022-11-20T00:24:51;17.95;;;15.28;;
8544;SDS011;4310;51.054;6.994;2022-11-20T00:25:55;17.60;;;15.68;;
8544;SDS011;4310;51.054;6.994;2022-11-20T00:26:59;17.65;;;15.55;;
8544;SDS011;4310;51.054;6.994;2022-11-20T00:28:02;17.93;;;16.03;;
8544;SDS011;4310;51.054;6.994;2022-11-20T00:29:08;17.45;;;15.65;;
8544;SDS011;4310;51.054;6.994;2022-11-20T00:30:12;17.60;;;15.80;;
8544;SDS011;4310;51.054;6.994;2022-11-20T00:31:16;18.00;;;16.12;;
8544;SDS011;4310;51.054;6.994;2022-11-20T00:32:20;17.67;;;15.88;;
8544;SDS011;4310;51.054;6.994;2022-11-20T00:33:23;17.17;;;15.38;;
8544;SDS011;4310;51.054;6.994;2022-11-20T00:34:27;17.52;;;15.63;;
8544;SDS011;4310;51.054;6.994;2022-11-20T00:35:31;17.23;;;15.33;;
8544;SDS011;4310;51.054;6.994;2022-11-20T00:36:34;17.92;;;16.02;;
8544;SDS011;4310;51.054;6.994;2022-11-20T00:37:38;17.57;;;15.35;;
8544;SDS011;4310;51.054;6.994;2022-11-20T00:39:53;17.70;;;15.80;;
8544;SDS011;4310;51.054;6.994;2022-11-20T00:42:09;17.73;;;15.90;;
8544;SDS011;4310;51.054;6.994;2022-11-20T00:43:12;16.87;;;15.18;;
8544;SDS011;4310;51.054;6.994;2022-11-20T00:44:16;17.27;;;15.40;;
8544;SDS011;4310;51.054;6.994;2022-11-20T00:45:20;16.67;;;14.98;;
8544;SDS011;4310;51.054;6.994;2022-11-20T00:46:24;17.50;;;15.63;;
8544;SDS011;4310;51.054;6.994;2022-11-20T00:47:28;18.02;;;16.15;;
8544;SDS011;4310;51.054;6.994;2022-11-20T00:48:32;17.30;;;15.25;;
8544;SDS011;4310;51.054;6.994;2022-11-20T00:49:36;16.52;;;14.85;;
8544;SDS011;4310;51.054;6.994;2022-11-20T00:50:39;18.23;;;16.27;;
8544;SDS011;4310;51.054;6.994;2022-11-20T00:51:44;17.07;;;15.28;;
8544;SDS011;4310;51.054;6.994;2022-11-20T00:53:59;16.27;;;14.55;;
8544;SDS011;4310;51.054;6.994;2022-11-20T00:55:05;16.90;;;15.20;;
8544;SDS011;4310;51.054;6.994;2022-11-20T00:57:21;17.17;;;15.43;;
8544;SDS011;4310;51.054;6.994;2022-11-20T00:58:25;18.57;;;15.70;;
8544;SDS011;4310;51.054;6.994;2022-11-20T00:59:30;16.97;;;15.28;;
8544;SDS011;4310;51.054;6.994;2022-11-20T01:00:33;17.23;;;15.43;;
8544;SDS011;4310;51.054;6.994;2022-11-20T01:01:37;17.32;;;15.50;;
8544;SDS011;4310;51.054;6.994;2022-11-20T01:02:41;17.20;;;15.40;;
8544;SDS011;4310;51.054;6.994;2022-11-20T01:03:45;17.00;;;15.30;;
8544;SDS011;4310;51.054;6.994;2022-11-20T01:06:01;16.60;;;14.90;;
8544;SDS011;4310;51.054;6.994;2022-11-20T01:07:05;20.08;;;16.57;;
8544;SDS011;4310;51.054;6.994;2022-11-20T01:08:09;19.17;;;17.07;;
8544;SDS011;4310;51.054;6.994;2022-11-20T01:09:13;19.00;;;17.00;;
8544;SDS011;4310;51.054;6.994;2022-11-20T01:10:17;19.87;;;16.87;;
8544;SDS011;4310;51.054;6.994;2022-11-20T01:11:21;17.60;;;15.70;;
8544;SDS011;4310;51.054;6.994;2022-11-20T01:12:25;16.73;;;15.03;;
8544;SDS011;4310;51.054;6.994;2022-11-20T01:13:29;18.02;;;16.12;;
8544;SDS011;4310;51.054;6.994;2022-11-20T01:14:39;17.30;;;15.50;;
8544;SDS011;4310;51.054;6.994;2022-11-20T01:15:43;17.45;;;15.53;;
8544;SDS011;4310;51.054;6.994;2022-11-20T01:16:48;17.10;;;15.30;;
8544;SDS011;4310;51.054;6.994;2022-11-20T01:17:52;16.97;;;15.18;;
8544;SDS011;4310;51.054;6.994;2022-11-20T01:18:56;18.00;;;15.95;;
8544;SDS011;4310;51.054;6.994;2022-11-20T01:20:00;16.95;;;15.15;;
8544;SDS011;4310;51.054;6.994;2022-11-20T01:21:05;17.23;;;15.43;;
8544;SDS011;4310;51.054;6.994;2022-11-20T01:23:20;17.20;;;15.40;;
8544;SDS011;4310;51.054;6.994;2022-11-20T01:24:24;16.97;;;15.18;;
8544;SDS011;4310;51.054;6.994;2022-11-20T01:25:28;17.35;;;15.50;;
8544;SDS011;4310;51.054;6.994;2022-11-20T01:26:32;16.77;;;14.80;;
8544;SDS011;4310;51.054;6.994;2022-11-20T01:27:36;17.32;;;15.43;;
8544;SDS011;4310;51.054;6.994;2022-11-20T01:28:40;17.12;;;15.32;;
8544;SDS011;4310;51.054;6.994;2022-11-20T01:29:44;17.30;;;15.50;;
8544;SDS011;4310;51.054;6.994;2022-11-20T01:30:47;17.30;;;15.50;;
8544;SDS011;4310;51.054;6.994;2022-11-20T01:31:51;17.00;;;15.30;;
8544;SDS011;4310;51.054;6.994;2022-11-20T01:32:55;16.23;;;14.53;;
8544;SDS011;4310;51.054;6.994;2022-11-20T01:35:11;16.00;;;14.40;;
8544;SDS011;4310;51.054;6.994;2022-11-20T01:36:14;16.37;;;14.65;;
8544;SDS011;4310;51.054;6.994;2022-11-20T01:37:18;17.17;;;15.38;;
8544;SDS011;4310;51.054;6.994;2022-11-20T01:38:22;16.65;;;14.83;;
8544;SDS011;4310;51.054;6.994;2022-11-20T01:39:26;16.77;;;15.08;;
8544;SDS011;4310;51.054;6.994;2022-11-20T01:40:30;16.17;;;14.47;;
8544;SDS011;4310;51.054;6.994;2022-11-20T01:41:34;16.73;;;15.03;;
8544;SDS011;4310;51.054;6.994;2022-11-20T01:44:13;16.80;;;15.00;;
8544;SDS011;4310;51.054;6.994;2022-11-20T01:46:39;17.52;;;15.72;;
8544;SDS011;4310;51.054;6.994;2022-11-20T01:47:43;17.50;;;15.63;;
8544;SDS011;4310;51.054;6.994;2022-11-20T01:48:50;17.12;;;15.32;;
8544;SDS011;4310;51.054;6.994;2022-11-20T01:49:55;17.15;;;15.30;;
8544;SDS011;4310;51.054;6.994;2022-11-20T01:51:01;18.00;;;16.10;;
8544;SDS011;4310;51.054;6.994;2022-11-20T01:53:18;17.35;;;15.55;;
8544;SDS011;4310;51.054;6.994;2022-11-20T01:54:23;17.45;;;15.65;;
8544;SDS011;4310;51.054;6.994;2022-11-20T01:55:28;16.93;;;15.13;;
8544;SDS011;4310;51.054;6.994;2022-11-20T01:56:33;17.65;;;15.85;;
8544;SDS011;4310;51.054;6.994;2022-11-20T01:57:38;18.32;;;15.98;;
8544;SDS011;4310;51.054;6.994;2022-11-20T01:59:55;18.67;;;16.67;;
8544;SDS011;4310;51.054;6.994;2022-11-20T02:00:59;18.25;;;16.25;;
8544;SDS011;4310;51.054;6.994;2022-11-20T02:02:03;18.17;;;16.27;;
8544;SDS011;4310;51.054;6.994;2022-11-20T02:03:08;17.35;;;15.55;;
8544;SDS011;4310;51.054;6.994;2022-11-20T02:04:12;18.90;;;16.90;;
8544;SDS011;4310;51.054;6.994;2022-11-20T02:05:18;18.27;;;16.25;;
8544;SDS011;4310;51.054;6.994;2022-11-20T02:06:23;18.00;;;16.00;;
8544;SDS011;4310;51.054;6.994;2022-11-20T02:07:27;18.07;;;16.17;;
8544;SDS011;4310;51.054;6.994;2022-11-20T02:08:32;17.48;;;15.58;;
8544;SDS011;4310;51.054;6.994;2022-11-20T02:09:35;17.80;;;15.95;;
8544;SDS011;4310;51.054;6.994;2022-11-20T02:10:39;18.17;;;16.25;;
8544;SDS011;4310;51.054;6.994;2022-11-20T02:12:54;18.20;;;16.32;;
8544;SDS011;4310;51.054;6.994;2022-11-20T02:14:16;18.23;;;16.32;;
8544;SDS011;4310;51.054;6.994;2022-11-20T02:15:20;17.07;;;15.28;;
8544;SDS011;4310;51.054;6.994;2022-11-20T02:16:25;18.00;;;16.05;;
8544;SDS011;4310;51.054;6.994;2022-11-20T02:17:29;17.23;;;15.23;;
8544;SDS011;4310;51.054;6.994;2022-11-20T02:18:33;17.73;;;15.68;;
8544;SDS011;4310;51.054;6.994;2022-11-20T02:19:36;17.10;;;15.30;;
8544;SDS011;4310;51.054;6.994;2022-11-20T02:21:54;17.02;;;15.32;;
8544;SDS011;4310;51.054;6.994;2022-11-20T02:22:59;16.57;;;14.87;;
8544;SDS011;4310;51.054;6.994;2022-11-20T02:24:04;16.45;;;14.75;;
8544;SDS011;4310;51.054;6.994;2022-11-20T02:25:09;16.62;;;14.93;;
8544;SDS011;4310;51.054;6.994;2022-11-20T02:26:13;16.75;;;15.05;;
8544;SDS011;4310;51.054;6.994;2022-11-20T02:27:17;16.75;;;15.05;;
8544;SDS011;4310;51.054;6.994;2022-11-20T02:29:35;16.93;;;15.18;;
8544;SDS011;4310;51.054;6.994;2022-11-20T02:30:39;16.30;;;14.58;;
8544;SDS011;4310;51.054;6.994;2022-11-20T02:31:43;16.27;;;14.58;;
8544;SDS011;4310;51.054;6.994;2022-11-20T02:33:58;16.23;;;14.53;;
8544;SDS011;4310;51.054;6.994;2022-11-20T02:35:06;16.10;;;14.38;;
8544;SDS011;4310;51.054;6.994;2022-11-20T02:37:22;16.70;;;15.05;;
8544;SDS011;4310;51.054;6.994;2022-11-20T02:38:26;16.48;;;14.78;;
8544;SDS011;4310;51.054;6.994;2022-11-20T02:39:30;16.62;;;14.90;;
8544;SDS011;4310;51.054;6.994;2022-11-20T02:40:34;17.00;;;15.30;;
8544;SDS011;4310;51.054;6.994;2022-11-20T02:41:37;16.85;;;15.05;;
8544;SDS011;4310;51.054;6.994;2022-11-20T02:42:41;16.50;;;14.80;;
8544;SDS011;4310;51.054;6.994;2022-11-20T02:43:45;16.57;;;14.87;;
8544;SDS011;4310;51.054;6.994;2022-11-20T02:44:49;16.65;;;14.70;;
8544;SDS011;4310;51.054;6.994;2022-11-20T02:46:11;16.73;;;15.05;;
8544;SDS011;4310;51.054;6.994;2022-11-20T02:48:26;17.87;;;16.07;;
8544;SDS011;4310;51.054;6.994;2022-11-20T02:49:29;17.00;;;15.30;;
8544;SDS011;4310;51.054;6.994;2022-11-20T02:50:33;16.55;;;14.85;;
8544;SDS011;4310;51.054;6.994;2022-11-20T02:52:50;16.12;;;14.53;;
8544;SDS011;4310;51.054;6.994;2022-11-20T02:53:53;16.60;;;14.85;;
8544;SDS011;4310;51.054;6.994;2022-11-20T02:54:57;17.42;;;15.63;;
8544;SDS011;4310;51.054;6.994;2022-11-20T02:57:12;16.20;;;14.60;;
8544;SDS011;4310;51.054;6.994;2022-11-20T02:58:16;16.85;;;15.05;;
8544;SDS011;4310;51.054;6.994;2022-11-20T02:59:20;16.85;;;15.15;;
8544;SDS011;4310;51.054;6.994;2022-11-20T03:00:24;16.10;;;14.45;;
8544;SDS011;4310;51.054;6.994;2022-11-20T03:01:28;16.20;;;14.60;;
8544;SDS011;4310;51.054;6.994;2022-11-20T03:02:32;16.67;;;14.87;;
8544;SDS011;4310;51.054;6.994;2022-11-20T03:03:36;17.27;;;15.48;;
8544;SDS011;4310;51.054;6.994;2022-11-20T03:04:40;17.37;;;15.48;;
8544;SDS011;4310;51.054;6.994;2022-11-20T03:05:44;16.42;;;14.50;;
8544;SDS011;4310;51.054;6.994;2022-11-20T03:06:47;16.62;;;14.93;;
8544;SDS011;4310;51.054;6.994;2022-11-20T03:07:51;16.93;;;15.13;;
8544;SDS011;4310;51.054;6.994;2022-11-20T03:08:55;16.90;;;15.08;;
8544;SDS011;4310;51.054;6.994;2022-11-20T03:09:59;16.15;;;14.55;;
8544;SDS011;4310;51.054;6.994;2022-11-20T03:11:03;16.52;;;14.83;;
8544;SDS011;4310;51.054;6.994;2022-11-20T03:12:07;16.60;;;14.75;;
8544;SDS011;4310;51.054;6.994;2022-11-20T03:13:12;16.77;;;15.08;;
8544;SDS011;4310;51.054;6.994;2022-11-20T03:14:17;17.15;;;15.45;;
8544;SDS011;4310;51.054;6.994;2022-11-20T03:15:23;16.77;;;15.08;;
8544;SDS011;4310;51.054;6.994;2022-11-20T03:16:27;17.50;;;15.63;;
8544;SDS011;4310;51.054;6.994;2022-11-20T03:17:31;17.23;;;15.43;;
8544;SDS011;4310;51.054;6.994;2022-11-20T03:19:47;16.85;;;15.08;;
8544;SDS011;4310;51.054;6.994;2022-11-20T03:20:56;16.57;;;14.87;;
8544;SDS011;4310;51.054;6.994;2022-11-20T03:21:56;17.07;;;15.38;;
8544;SDS011;4310;51.054;6.994;2022-11-20T03:22:59;17.40;;;15.60;;
8544;SDS011;4310;51.054;6.994;2022-11-20T03:24:04;17.23;;;15.43;;
8544;SDS011;4310;51.054;6.994;2022-11-20T03:25:08;19.52;;;17.05;;
8544;SDS011;4310;51.054;6.994;2022-11-20T03:26:12;19.07;;;17.07;;
8544;SDS011;4310;51.054;6.994;2022-11-20T03:27:17;20.17;;;17.98;;
8544;SDS011;4310;51.054;6.994;2022-11-20T03:28:20;19.27;;;17.25;;
8544;SDS011;4310;51.054;6.994;2022-11-20T03:29:24;19.45;;;17.35;;
8544;SDS011;4310;51.054;6.994;2022-11-20T03:30:28;18.20;;;16.30;;
8544;SDS011;4310;51.054;6.994;2022-11-20T03:31:32;18.98;;;16.97;;
8544;SDS011;4310;51.054;6.994;2022-11-20T03:32:36;17.85;;;16.05;;
8544;SDS011;4310;51.054;6.994;2022-11-20T03:33:40;18.05;;;16.15;;
8544;SDS011;4310;51.054;6.994;2022-11-20T03:34:44;18.02;;;16.12;;
8544;SDS011;4310;51.054;6.994;2022-11-20T03:35:48;18.62;;;16.73;;
8544;SDS011;4310;51.054;6.994;2022-11-20T03:36:52;18.15;;;16.25;;
8544;SDS011;4310;51.054;6.994;2022-11-20T03:37:55;17.02;;;15.30;;
8544;SDS011;4310;51.054;6.994;2022-11-20T03:39:00;19.02;;;17.02;;
8544;SDS011;4310;51.054;6.994;2022-11-20T03:40:07;18.30;;;16.40;;
8544;SDS011;4310;51.054;6.994;2022-11-20T03:41:11;18.35;;;16.52;;
8544;SDS011;4310;51.054;6.994;2022-11-20T03:42:18;17.57;;;15.78;;
8544;SDS011;4310;51.054;6.994;2022-11-20T03:43:39;18.23;;;16.32;;
8544;SDS011;4310;51.054;6.994;2022-11-20T03:44:45;18.60;;;16.70;;
8544;SDS011;4310;51.054;6.994;2022-11-20T03:46:07;19.20;;;17.20;;
8544;SDS011;4310;51.054;6.994;2022-11-20T03:47:11;17.82;;;16.00;;
8544;SDS011;4310;51.054;6.994;2022-11-20T03:49:26;18.60;;;16.65;;
8544;SDS011;4310;51.054;6.994;2022-11-20T03:50:30;17.62;;;15.88;;
8544;SDS011;4310;51.054;6.994;2022-11-20T03:51:34;17.75;;;15.95;;
8544;SDS011;4310;51.054;6.994;2022-11-20T03:52:38;18.02;;;16.23;;
8544;SDS011;4310;51.054;6.994;2022-11-20T03:54:53;17.70;;;16.00;;
8544;SDS011;4310;51.054;6.994;2022-11-20T03:55:57;18.32;;;16.42;;
8544;SDS011;4310;51.054;6.994;2022-11-20T03:57:00;19.07;;;17.15;;
8544;SDS011;4310;51.054;6.994;2022-11-20T03:58:04;18.75;;;16.85;;
8544;SDS011;4310;51.054;6.994;2022-11-20T03:59:10;18.70;;;16.80;;
8544;SDS011;4310;51.054;6.994;2022-11-20T04:00:14;18.80;;;16.80;;
8544;SDS011;4310;51.054;6.994;2022-11-20T04:01:19;18.67;;;16.75;;
8544;SDS011;4310;51.054;6.994;2022-11-20T04:02:22;19.23;;;17.12;;
8544;SDS011;4310;51.054;6.994;2022-11-20T04:03:26;19.57;;;17.53;;
8544;SDS011;4310;51.054;6.994;2022-11-20T04:04:30;18.98;;;17.02;;
8544;SDS011;4310;51.054;6.994;2022-11-20T04:06:45;19.87;;;17.80;;
8544;SDS011;4310;51.054;6.994;2022-11-20T04:07:49;19.57;;;17.48;;
8544;SDS011;4310;51.054;6.994;2022-11-20T04:08:54;19.35;;;17.32;;
8544;SDS011;4310;51.054;6.994;2022-11-20T04:09:58;19.50;;;17.50;;
8544;SDS011;4310;51.054;6.994;2022-11-20T04:12:31;20.50;;;18.40;;
8544;SDS011;4310;51.054;6.994;2022-11-20T04:13:36;19.77;;;17.67;;
8544;SDS011;4310;51.054;6.994;2022-11-20T04:14:40;19.50;;;17.50;;
8544;SDS011;4310;51.054;6.994;2022-11-20T04:16:02;19.57;;;17.57;;
8544;SDS011;4310;51.054;6.994;2022-11-20T04:17:05;19.40;;;17.40;;
8544;SDS011;4310;51.054;6.994;2022-11-20T04:18:09;19.48;;;17.48;;
8544;SDS011;4310;51.054;6.994;2022-11-20T04:19:13;19.02;;;17.12;;
8544;SDS011;4310;51.054;6.994;2022-11-20T04:20:17;20.20;;;18.10;;
8544;SDS011;4310;51.054;6.994;2022-11-20T04:22:33;18.70;;;16.80;;
8544;SDS011;4310;51.054;6.994;2022-11-20T04:23:36;20.37;;;18.12;;
8544;SDS011;4310;51.054;6.994;2022-11-20T04:24:40;20.17;;;18.10;;
8544;SDS011;4310;51.054;6.994;2022-11-20T04:25:44;19.98;;;17.87;;
8544;SDS011;4310;51.054;6.994;2022-11-20T04:26:48;20.57;;;18.57;;
8544;SDS011;4310;51.054;6.994;2022-11-20T04:27:51;21.75;;;19.65;;
8544;SDS011;4310;51.054;6.994;2022-11-20T04:28:55;20.32;;;18.32;;
8544;SDS011;4310;51.054;6.994;2022-11-20T04:29:59;19.55;;;17.55;;
8544;SDS011;4310;51.054;6.994;2022-11-20T04:31:13;20.08;;;18.00;;
8544;SDS011;4310;51.054;6.994;2022-11-20T04:33:28;19.98;;;17.98;;
8544;SDS011;4310;51.054;6.994;2022-11-20T04:34:32;20.40;;;18.40;;
8544;SDS011;4310;51.054;6.994;2022-11-20T04:35:35;20.52;;;18.48;;
8544;SDS011;4310;51.054;6.994;2022-11-20T04:36:39;20.92;;;18.85;;
8544;SDS011;4310;51.054;6.994;2022-11-20T04:37:43;21.60;;;19.50;;
8544;SDS011;4310;51.054;6.994;2022-11-20T04:38:49;20.92;;;18.82;;
8544;SDS011;4310;51.054;6.994;2022-11-20T04:39:52;20.20;;;18.23;;
8544;SDS011;4310;51.054;6.994;2022-11-20T04:40:59;19.92;;;17.92;;
8544;SDS011;4310;51.054;6.994;2022-11-20T04:42:03;20.12;;;18.10;;
8544;SDS011;4310;51.054;6.994;2022-11-20T04:43:25;19.65;;;17.60;;
8544;SDS011;4310;51.054;6.994;2022-11-20T04:44:28;21.55;;;19.50;;
8544;SDS011;4310;51.054;6.994;2022-11-20T04:46:44;20.85;;;18.70;;
8544;SDS011;4310;51.054;6.994;2022-11-20T04:47:47;19.80;;;17.80;;
8544;SDS011;4310;51.054;6.994;2022-11-20T04:48:51;20.37;;;18.23;;
8544;SDS011;4310;51.054;6.994;2022-11-20T04:51:06;20.75;;;18.55;;
8544;SDS011;4310;51.054;6.994;2022-11-20T04:52:10;21.27;;;19.17;;
8544;SDS011;4310;51.054;6.994;2022-11-20T04:54:43;21.75;;;19.65;;
8544;SDS011;4310;51.054;6.994;2022-11-20T04:55:47;20.75;;;18.55;;
8544;SDS011;4310;51.054;6.994;2022-11-20T04:56:51;20.17;;;18.15;;
8544;SDS011;4310;51.054;6.994;2022-11-20T04:57:55;19.55;;;17.55;;
8544;SDS011;4310;51.054;6.994;2022-11-20T04:59:01;19.77;;;17.73;;
8544;SDS011;4310;51.054;6.994;2022-11-20T05:01:18;20.68;;;18.60;;
8544;SDS011;4310;51.054;6.994;2022-11-20T05:02:22;19.50;;;17.60;;
8544;SDS011;4310;51.054;6.994;2022-11-20T05:03:25;19.00;;;17.07;;
8544;SDS011;4310;51.054;6.994;2022-11-20T05:04:29;19.15;;;17.30;;
8544;SDS011;4310;51.054;6.994;2022-11-20T05:05:33;19.80;;;17.70;;
8544;SDS011;4310;51.054;6.994;2022-11-20T05:06:38;19.62;;;17.52;;
8544;SDS011;4310;51.054;6.994;2022-11-20T05:07:42;19.52;;;17.52;;
8544;SDS011;4310;51.054;6.994;2022-11-20T05:08:46;18.23;;;16.32;;
8544;SDS011;4310;51.054;6.994;2022-11-20T05:09:49;18.62;;;16.60;;
8544;SDS011;4310;51.054;6.994;2022-11-20T05:10:53;18.70;;;16.75;;
8544;SDS011;4310;51.054;6.994;2022-11-20T05:11:57;18.55;;;16.65;;
8544;SDS011;4310;51.054;6.994;2022-11-20T05:13:01;18.87;;;16.97;;
8544;SDS011;4310;51.054;6.994;2022-11-20T05:14:04;18.85;;;16.85;;
8544;SDS011;4310;51.054;6.994;2022-11-20T05:15:09;18.17;;;16.37;;
8544;SDS011;4310;51.054;6.994;2022-11-20T05:16:13;18.98;;;17.05;;
8544;SDS011;4310;51.054;6.994;2022-11-20T05:17:17;19.20;;;16.85;;
8544;SDS011;4310;51.054;6.994;2022-11-20T05:18:21;17.82;;;16.02;;
8544;SDS011;4310;51.054;6.994;2022-11-20T05:20:36;18.80;;;16.90;;
8544;SDS011;4310;51.054;6.994;2022-11-20T05:21:40;19.82;;;17.73;;
8544;SDS011;4310;51.054;6.994;2022-11-20T05:22:43;19.10;;;17.10;;
8544;SDS011;4310;51.054;6.994;2022-11-20T05:23:47;19.30;;;17.25;;
8544;SDS011;4310;51.054;6.994;2022-11-20T05:24:51;18.83;;;16.93;;
8544;SDS011;4310;51.054;6.994;2022-11-20T05:25:55;18.77;;;16.77;;
8544;SDS011;4310;51.054;6.994;2022-11-20T05:26:58;18.30;;;16.40;;
8544;SDS011;4310;51.054;6.994;2022-11-20T05:28:02;18.87;;;16.93;;
8544;SDS011;4310;51.054;6.994;2022-11-20T05:29:06;19.80;;;17.70;;
8544;SDS011;4310;51.054;6.994;2022-11-20T05:30:11;19.00;;;17.10;;
8544;SDS011;4310;51.054;6.994;2022-11-20T05:31:16;19.40;;;17.40;;
8544;SDS011;4310;51.054;6.994;2022-11-20T05:32:19;19.37;;;17.37;;
8544;SDS011;4310;51.054;6.994;2022-11-20T05:33:24;19.62;;;17.62;;
8544;SDS011;4310;51.054;6.994;2022-11-20T05:34:28;19.77;;;17.70;;
8544;SDS011;4310;51.054;6.994;2022-11-20T05:35:32;18.98;;;16.97;;
8544;SDS011;4310;51.054;6.994;2022-11-20T05:36:36;19.45;;;17.52;;
8544;SDS011;4310;51.054;6.994;2022-11-20T05:37:39;19.50;;;17.50;;
8544;SDS011;4310;51.054;6.994;2022-11-20T05:38:43;19.42;;;17.35;;
8544;SDS011;4310;51.054;6.994;2022-11-20T05:39:47;19.05;;;17.17;;
8544;SDS011;4310;51.054;6.994;2022-11-20T05:40:50;19.47;;;17.50;;
8544;SDS011;4310;51.054;6.994;2022-11-20T05:41:54;19.30;;;17.20;;
8544;SDS011;4310;51.054;6.994;2022-11-20T05:43:17;20.30;;;18.10;;
8544;SDS011;4310;51.054;6.994;2022-11-20T05:44:21;19.85;;;17.85;;
8544;SDS011;4310;51.054;6.994;2022-11-20T05:45:24;19.30;;;17.40;;
8544;SDS011;4310;51.054;6.994;2022-11-20T05:46:28;19.23;;;17.23;;
8544;SDS011;4310;51.054;6.994;2022-11-20T05:48:43;19.20;;;17.20;;
8544;SDS011;4310;51.054;6.994;2022-11-20T05:49:47;19.30;;;17.40;;
8544;SDS011;4310;51.054;6.994;2022-11-20T05:50:51;19.42;;;17.42;;
8544;SDS011;4310;51.054;6.994;2022-11-20T05:51:55;19.87;;;17.77;;
8544;SDS011;4310;51.054;6.994;2022-11-20T05:52:59;20.45;;;18.23;;
8544;SDS011;4310;51.054;6.994;2022-11-20T05:55:14;20.55;;;18.37;;
8544;SDS011;4310;51.054;6.994;2022-11-20T05:56:18;20.95;;;18.82;;
8544;SDS011;4310;51.054;6.994;2022-11-20T05:57:22;21.48;;;19.23;;
8544;SDS011;4310;51.054;6.994;2022-11-20T05:58:26;20.80;;;18.60;;
8544;SDS011;4310;51.054;6.994;2022-11-20T05:59:30;20.75;;;18.55;;
8544;SDS011;4310;51.054;6.994;2022-11-20T06:00:33;21.15;;;19.05;;
8544;SDS011;4310;51.054;6.994;2022-11-20T06:02:49;21.52;;;19.23;;
8544;SDS011;4310;51.054;6.994;2022-11-20T06:03:53;21.95;;;19.75;;
8544;SDS011;4310;51.054;6.994;2022-11-20T06:04:57;21.42;;;19.17;;
8544;SDS011;4310;51.054;6.994;2022-11-20T06:06:00;21.45;;;19.15;;
8544;SDS011;4310;51.054;6.994;2022-11-20T06:07:05;20.25;;;18.25;;
8544;SDS011;4310;51.054;6.994;2022-11-20T06:08:09;21.35;;;19.15;;
8544;SDS011;4310;51.054;6.994;2022-11-20T06:09:12;22.70;;;20.50;;
8544;SDS011;4310;51.054;6.994;2022-11-20T06:10:16;22.98;;;20.80;;
8544;SDS011;4310;51.054;6.994;2022-11-20T06:11:20;22.67;;;20.52;;
8544;SDS011;4310;51.054;6.994;2022-11-20T06:12:24;23.52;;;21.33;;
8544;SDS011;4310;51.054;6.994;2022-11-20T06:13:27;23.80;;;21.60;;
8544;SDS011;4310;51.054;6.994;2022-11-20T06:14:31;24.47;;;22.20;;
8544;SDS011;4310;51.054;6.994;2022-11-20T06:15:35;24.52;;;22.22;;
8544;SDS011;4310;51.054;6.994;2022-11-20T06:17:52;24.72;;;22.42;;
8544;SDS011;4310;51.054;6.994;2022-11-20T06:18:55;22.82;;;20.62;;
8544;SDS011;4310;51.054;6.994;2022-11-20T06:19:59;24.25;;;21.95;;
8544;SDS011;4310;51.054;6.994;2022-11-20T06:21:04;24.63;;;22.40;;
8544;SDS011;4310;51.054;6.994;2022-11-20T06:22:08;24.60;;;22.30;;
8544;SDS011;4310;51.054;6.994;2022-11-20T06:23:12;25.88;;;23.45;;
8544;SDS011;4310;51.054;6.994;2022-11-20T06:24:15;25.72;;;23.42;;
8544;SDS011;4310;51.054;6.994;2022-11-20T06:26:30;28.73;;;26.23;;
8544;SDS011;4310;51.054;6.994;2022-11-20T06:27:34;30.23;;;27.62;;
8544;SDS011;4310;51.054;6.994;2022-11-20T06:28:38;28.55;;;26.02;;
8544;SDS011;4310;51.054;6.994;2022-11-20T06:29:42;29.72;;;27.17;;
8544;SDS011;4310;51.054;6.994;2022-11-20T06:31:04;31.77;;;29.07;;
8544;SDS011;4310;51.054;6.994;2022-11-20T06:32:09;34.43;;;31.57;;
8544;SDS011;4310;51.054;6.994;2022-11-20T06:33:12;37.63;;;34.70;;
8544;SDS011;4310;51.054;6.994;2022-11-20T06:34:16;39.03;;;35.92;;
8544;SDS011;4310;51.054;6.994;2022-11-20T06:35:20;36.50;;;33.70;;
8544;SDS011;4310;51.054;6.994;2022-11-20T06:36:24;34.85;;;31.97;;
8544;SDS011;4310;51.054;6.994;2022-11-20T06:37:27;36.17;;;33.23;;
8544;SDS011;4310;51.054;6.994;2022-11-20T06:38:37;36.60;;;33.60;;
8544;SDS011;4310;51.054;6.994;2022-11-20T06:39:41;37.53;;;34.57;;
8544;SDS011;4310;51.054;6.994;2022-11-20T06:41:56;37.80;;;34.83;;
8544;SDS011;4310;51.054;6.994;2022-11-20T06:42:59;39.03;;;35.98;;
8544;SDS011;4310;51.054;6.994;2022-11-20T06:44:04;40.40;;;37.30;;
8544;SDS011;4310;51.054;6.994;2022-11-20T06:46:20;43.40;;;40.10;;
8544;SDS011;4310;51.054;6.994;2022-11-20T06:47:24;47.60;;;44.10;;
8544;SDS011;4310;51.054;6.994;2022-11-20T06:48:27;47.83;;;44.33;;
8544;SDS011;4310;51.054;6.994;2022-11-20T06:49:31;50.43;;;46.90;;
8544;SDS011;4310;51.054;6.994;2022-11-20T06:50:36;51.98;;;48.28;;
8544;SDS011;4310;51.054;6.994;2022-11-20T06:51:40;49.05;;;45.43;;
8544;SDS011;4310;51.054;6.994;2022-11-20T06:53:55;50.00;;;46.40;;
8544;SDS011;4310;51.054;6.994;2022-11-20T06:54:59;50.95;;;47.25;;
8544;SDS011;4310;51.054;6.994;2022-11-20T06:57:14;53.08;;;49.35;;
8544;SDS011;4310;51.054;6.994;2022-11-20T06:58:18;52.30;;;48.50;;
8544;SDS011;4310;51.054;6.994;2022-11-20T06:59:22;57.93;;;53.98;;
8544;SDS011;4310;51.054;6.994;2022-11-20T07:00:25;60.88;;;56.68;;
8544;SDS011;4310;51.054;6.994;2022-11-20T07:02:41;62.85;;;58.42;;
8544;SDS011;4310;51.054;6.994;2022-11-20T07:03:44;63.08;;;58.83;;
8544;SDS011;4310;51.054;6.994;2022-11-20T07:04:48;63.00;;;58.80;;
8544;SDS011;4310;51.054;6.994;2022-11-20T07:05:54;61.95;;;57.65;;
8544;SDS011;4310;51.054;6.994;2022-11-20T07:06:58;62.75;;;58.55;;
8544;SDS011;4310;51.054;6.994;2022-11-20T07:08:02;65.30;;;60.98;;
8544;SDS011;4310;51.054;6.994;2022-11-20T07:10:18;70.20;;;65.70;;
8544;SDS011;4310;51.054;6.994;2022-11-20T07:11:22;74.07;;;69.27;;
8544;SDS011;4310;51.054;6.994;2022-11-20T07:12:26;69.82;;;65.32;;
8544;SDS011;4310;51.054;6.994;2022-11-20T07:13:30;67.42;;;62.83;;
8544;SDS011;4310;51.054;6.994;2022-11-20T07:14:33;66.22;;;61.63;;
8544;SDS011;4310;51.054;6.994;2022-11-20T07:15:38;63.48;;;59.18;;
8544;SDS011;4310;51.054;6.994;2022-11-20T07:16:41;64.72;;;60.23;;
8544;SDS011;4310;51.054;6.994;2022-11-20T07:17:45;66.25;;;61.83;;
8544;SDS011;4310;51.054;6.994;2022-11-20T07:18:50;65.65;;;61.13;;
8544;SDS011;4310;51.054;6.994;2022-11-20T07:19:53;63.17;;;58.70;;
8544;SDS011;4310;51.054;6.994;2022-11-20T07:21:00;60.08;;;55.95;;